sensor_id;sensor_type;location;lat;lon;timestamp;temperature;humidity
3602;DHT22;1815;50.950;6.920;2023-07-24T00:01:19;21.00;99.90
3602;DHT22;1815;50.950;6.920;2023-07-24T00:03:45;20.90;99.90
3602;DHT22;1815;50.950;6.920;2023-07-24T00:06:11;20.90;99.90
3602;DHT22;1815;50.950;6.920;2023-07-24T00:08:37;20.90;99.90
3602;DHT22;1815;50.950;6.920;2023-07-24T00:11:06;20.90;99.90
3602;DHT22;1815;50.950;6.920;2023-07-24T00:13:32;20.80;99.90
3602;DHT22;1815;50.950;6.920;2023-07-24T00:15:58;20.80;99.90
3602;DHT22;1815;50.950;6.920;2023-07-24T00:18:24;20.80;99.90
3602;DHT22;1815;50.950;6.920;2023-07-24T00:20:50;20.80;99.90
3602;DHT22;1815;50.950;6.920;2023-07-24T00:23:15;20.70;99.90
3602;DHT22;1815;50.950;6.920;2023-07-24T00:25:41;20.70;99.90
3602;DHT22;1815;50.950;6.920;2023-07-24T00:28:06;20.60;99.90
3602;DHT22;1815;50.950;6.920;2023-07-24T00:30:32;20.60;99.90
3602;DHT22;1815;50.950;6.920;2023-07-24T00:32:58;20.60;99.90
3602;DHT22;1815;50.950;6.920;2023-07-24T00:35:24;20.70;99.90
3602;DHT22;1815;50.950;6.920;2023-07-24T00:37:50;20.70;99.90
3602;DHT22;1815;50.950;6.920;2023-07-24T00:40:16;20.60;99.90
3602;DHT22;1815;50.950;6.920;2023-07-24T00:42:46;20.60;99.90
3602;DHT22;1815;50.950;6.920;2023-07-24T00:45:13;20.60;99.90
3602;DHT22;1815;50.950;6.920;2023-07-24T00:47:38;20.60;99.90
3602;DHT22;1815;50.950;6.920;2023-07-24T00:50:05;20.60;99.90
3602;DHT22;1815;50.950;6.920;2023-07-24T00:52:32;20.60;99.90
3602;DHT22;1815;50.950;6.920;2023-07-24T00:54:58;20.60;99.90
3602;DHT22;1815;50.950;6.920;2023-07-24T00:57:24;20.50;99.90
3602;DHT22;1815;50.950;6.920;2023-07-24T00:59:49;20.50;99.90
3602;DHT22;1815;50.950;6.920;2023-07-24T01:02:16;20.50;99.90
3602;DHT22;1815;50.950;6.920;2023-07-24T01:04:42;20.50;99.90
3602;DHT22;1815;50.950;6.920;2023-07-24T01:07:08;20.50;99.90
3602;DHT22;1815;50.950;6.920;2023-07-24T01:09:34;20.40;99.90
3602;DHT22;1815;50.950;6.920;2023-07-24T01:12:07;20.40;99.90
3602;DHT22;1815;50.950;6.920;2023-07-24T01:14:47;20.40;99.90
3602;DHT22;1815;50.950;6.920;2023-07-24T01:17:16;20.40;99.90
3602;DHT22;1815;50.950;6.920;2023-07-24T01:19:47;20.30;99.90
3602;DHT22;1815;50.950;6.920;2023-07-24T01:25:35;20.30;99.90
3602;DHT22;1815;50.950;6.920;2023-07-24T01:28:01;20.30;99.90
3602;DHT22;1815;50.950;6.920;2023-07-24T01:30:31;20.20;99.90
3602;DHT22;1815;50.950;6.920;2023-07-24T01:32:57;20.20;99.90
3602;DHT22;1815;50.950;6.920;2023-07-24T01:35:23;20.20;99.90
3602;DHT22;1815;50.950;6.920;2023-07-24T01:37:49;20.20;99.90
3602;DHT22;1815;50.950;6.920;2023-07-24T01:40:15;20.20;99.90
3602;DHT22;1815;50.950;6.920;2023-07-24T01:42:42;20.20;99.90
3602;DHT22;1815;50.950;6.920;2023-07-24T01:45:08;20.20;99.90
3602;DHT22;1815;50.950;6.920;2023-07-24T01:47:34;20.20;99.90
3602;DHT22;1815;50.950;6.920;2023-07-24T01:50:00;20.20;99.90
3602;DHT22;1815;50.950;6.920;2023-07-24T01:52:26;20.20;99.90
3602;DHT22;1815;50.950;6.920;2023-07-24T01:54:52;20.20;99.90
3602;DHT22;1815;50.950;6.920;2023-07-24T01:57:18;20.20;99.90
3602;DHT22;1815;50.950;6.920;2023-07-24T01:59:44;20.30;99.90
3602;DHT22;1815;50.950;6.920;2023-07-24T02:02:11;20.30;99.90
3602;DHT22;1815;50.950;6.920;2023-07-24T02:04:36;20.30;99.90
3602;DHT22;1815;50.950;6.920;2023-07-24T02:07:03;20.30;99.90
3602;DHT22;1815;50.950;6.920;2023-07-24T02:09:29;20.40;99.90
3602;DHT22;1815;50.950;6.920;2023-07-24T02:11:54;20.40;99.90
3602;DHT22;1815;50.950;6.920;2023-07-24T02:14:21;20.50;99.90
3602;DHT22;1815;50.950;6.920;2023-07-24T02:16:46;20.50;99.90
3602;DHT22;1815;50.950;6.920;2023-07-24T02:19:12;20.60;99.90
3602;DHT22;1815;50.950;6.920;2023-07-24T02:21:38;20.60;99.90
3602;DHT22;1815;50.950;6.920;2023-07-24T02:24:04;20.60;99.90
3602;DHT22;1815;50.950;6.920;2023-07-24T02:26:30;20.50;99.90
3602;DHT22;1815;50.950;6.920;2023-07-24T02:28:56;20.50;99.90
3602;DHT22;1815;50.950;6.920;2023-07-24T02:31:21;20.30;99.90
3602;DHT22;1815;50.950;6.920;2023-07-24T02:33:48;20.30;99.90
3602;DHT22;1815;50.950;6.920;2023-07-24T02:36:14;20.20;99.90
3602;DHT22;1815;50.950;6.920;2023-07-24T02:38:40;20.10;99.90
3602;DHT22;1815;50.950;6.920;2023-07-24T02:41:06;20.00;99.90
3602;DHT22;1815;50.950;6.920;2023-07-24T02:43:32;20.00;99.90
3602;DHT22;1815;50.950;6.920;2023-07-24T02:46:01;19.90;99.90
3602;DHT22;1815;50.950;6.920;2023-07-24T02:48:28;19.90;99.90
3602;DHT22;1815;50.950;6.920;2023-07-24T02:50:54;19.90;99.90
3602;DHT22;1815;50.950;6.920;2023-07-24T02:53:20;19.80;99.90
3602;DHT22;1815;50.950;6.920;2023-07-24T02:55:46;19.80;99.90
3602;DHT22;1815;50.950;6.920;2023-07-24T02:58:13;19.80;99.90
3602;DHT22;1815;50.950;6.920;2023-07-24T03:00:39;19.80;99.90
3602;DHT22;1815;50.950;6.920;2023-07-24T03:03:05;19.80;99.90
3602;DHT22;1815;50.950;6.920;2023-07-24T03:05:33;19.80;99.90
3602;DHT22;1815;50.950;6.920;2023-07-24T03:07:59;19.80;99.90
3602;DHT22;1815;50.950;6.920;2023-07-24T03:10:25;19.80;99.90
3602;DHT22;1815;50.950;6.920;2023-07-24T03:12:51;19.80;99.90
3602;DHT22;1815;50.950;6.920;2023-07-24T03:15:18;19.90;99.90
3602;DHT22;1815;50.950;6.920;2023-07-24T03:17:43;19.90;99.90
3602;DHT22;1815;50.950;6.920;2023-07-24T03:20:17;19.90;99.90
3602;DHT22;1815;50.950;6.920;2023-07-24T03:22:44;19.90;99.90
3602;DHT22;1815;50.950;6.920;2023-07-24T03:25:10;19.90;99.90
3602;DHT22;1815;50.950;6.920;2023-07-24T03:27:36;19.90;99.90
3602;DHT22;1815;50.950;6.920;2023-07-24T03:30:02;19.90;99.90
3602;DHT22;1815;50.950;6.920;2023-07-24T03:32:29;19.90;99.90
3602;DHT22;1815;50.950;6.920;2023-07-24T03:34:55;20.00;99.90
3602;DHT22;1815;50.950;6.920;2023-07-24T03:37:21;20.00;99.90
3602;DHT22;1815;50.950;6.920;2023-07-24T03:39:47;19.90;99.90
3602;DHT22;1815;50.950;6.920;2023-07-24T03:42:27;19.90;99.90
3602;DHT22;1815;50.950;6.920;2023-07-24T03:44:54;19.90;99.90
3602;DHT22;1815;50.950;6.920;2023-07-24T03:47:19;19.90;99.90
3602;DHT22;1815;50.950;6.920;2023-07-24T03:49:45;19.90;99.90
3602;DHT22;1815;50.950;6.920;2023-07-24T03:52:11;19.90;99.90
3602;DHT22;1815;50.950;6.920;2023-07-24T03:54:37;19.90;99.90
3602;DHT22;1815;50.950;6.920;2023-07-24T03:57:03;20.00;99.90
3602;DHT22;1815;50.950;6.920;2023-07-24T03:59:30;20.00;99.90
3602;DHT22;1815;50.950;6.920;2023-07-24T04:01:55;20.00;99.90
3602;DHT22;1815;50.950;6.920;2023-07-24T04:04:21;20.00;99.90
3602;DHT22;1815;50.950;6.920;2023-07-24T04:06:47;20.00;99.90
3602;DHT22;1815;50.950;6.920;2023-07-24T04:09:13;20.00;99.90
3602;DHT22;1815;50.950;6.920;2023-07-24T04:11:42;20.10;99.90
3602;DHT22;1815;50.950;6.920;2023-07-24T04:14:08;20.10;99.90
3602;DHT22;1815;50.950;6.920;2023-07-24T04:16:34;20.10;99.90
3602;DHT22;1815;50.950;6.920;2023-07-24T04:18:59;20.10;99.90
3602;DHT22;1815;50.950;6.920;2023-07-24T04:21:26;20.10;99.90
3602;DHT22;1815;50.950;6.920;2023-07-24T04:23:52;20.10;99.90
3602;DHT22;1815;50.950;6.920;2023-07-24T04:26:18;20.10;99.90
3602;DHT22;1815;50.950;6.920;2023-07-24T04:28:43;20.10;99.90
3602;DHT22;1815;50.950;6.920;2023-07-24T04:31:09;20.10;99.90
3602;DHT22;1815;50.950;6.920;2023-07-24T04:33:35;20.10;99.90
3602;DHT22;1815;50.950;6.920;2023-07-24T04:36:01;20.10;99.90
3602;DHT22;1815;50.950;6.920;2023-07-24T04:38:26;20.10;99.90
3602;DHT22;1815;50.950;6.920;2023-07-24T04:40:52;20.10;99.90
3602;DHT22;1815;50.950;6.920;2023-07-24T04:43:18;20.10;99.90
3602;DHT22;1815;50.950;6.920;2023-07-24T04:45:43;20.10;99.90
3602;DHT22;1815;50.950;6.920;2023-07-24T04:48:09;20.20;99.90
3602;DHT22;1815;50.950;6.920;2023-07-24T04:50:35;20.20;99.90
3602;DHT22;1815;50.950;6.920;2023-07-24T04:53:00;20.20;99.90
3602;DHT22;1815;50.950;6.920;2023-07-24T04:55:26;20.20;99.90
3602;DHT22;1815;50.950;6.920;2023-07-24T04:57:52;20.20;99.90
3602;DHT22;1815;50.950;6.920;2023-07-24T05:00:18;20.20;99.90
3602;DHT22;1815;50.950;6.920;2023-07-24T05:02:43;20.30;99.90
3602;DHT22;1815;50.950;6.920;2023-07-24T05:05:09;20.30;99.90
3602;DHT22;1815;50.950;6.920;2023-07-24T05:07:35;20.40;99.90
3602;DHT22;1815;50.950;6.920;2023-07-24T05:10:00;20.40;99.90
3602;DHT22;1815;50.950;6.920;2023-07-24T05:12:26;20.50;99.90
3602;DHT22;1815;50.950;6.920;2023-07-24T05:14:52;20.50;99.90
3602;DHT22;1815;50.950;6.920;2023-07-24T05:17:18;20.60;99.90
3602;DHT22;1815;50.950;6.920;2023-07-24T05:19:43;20.70;99.90
3602;DHT22;1815;50.950;6.920;2023-07-24T05:22:09;20.80;99.90
3602;DHT22;1815;50.950;6.920;2023-07-24T05:24:38;20.80;99.90
3602;DHT22;1815;50.950;6.920;2023-07-24T05:27:05;21.00;99.90
3602;DHT22;1815;50.950;6.920;2023-07-24T05:29:31;21.10;99.90
3602;DHT22;1815;50.950;6.920;2023-07-24T05:31:57;21.20;99.90
3602;DHT22;1815;50.950;6.920;2023-07-24T05:34:24;21.40;99.90
3602;DHT22;1815;50.950;6.920;2023-07-24T05:36:50;21.50;99.90
3602;DHT22;1815;50.950;6.920;2023-07-24T05:39:16;21.80;99.90
3602;DHT22;1815;50.950;6.920;2023-07-24T05:41:41;22.10;99.90
3602;DHT22;1815;50.950;6.920;2023-07-24T05:44:07;22.40;99.90
3602;DHT22;1815;50.950;6.920;2023-07-24T05:46:33;22.50;99.90
3602;DHT22;1815;50.950;6.920;2023-07-24T05:48:59;22.70;99.90
3602;DHT22;1815;50.950;6.920;2023-07-24T05:51:27;22.90;99.90
3602;DHT22;1815;50.950;6.920;2023-07-24T05:53:53;23.20;99.90
3602;DHT22;1815;50.950;6.920;2023-07-24T05:56:19;23.40;99.90
3602;DHT22;1815;50.950;6.920;2023-07-24T05:58:45;24.00;99.90
3602;DHT22;1815;50.950;6.920;2023-07-24T06:01:11;24.90;99.90
3602;DHT22;1815;50.950;6.920;2023-07-24T06:03:36;25.50;99.90
3602;DHT22;1815;50.950;6.920;2023-07-24T06:06:04;26.30;99.90
3602;DHT22;1815;50.950;6.920;2023-07-24T06:08:30;27.00;99.90
3602;DHT22;1815;50.950;6.920;2023-07-24T06:10:55;27.80;99.90
3602;DHT22;1815;50.950;6.920;2023-07-24T06:13:22;28.20;99.90
3602;DHT22;1815;50.950;6.920;2023-07-24T06:15:48;28.40;99.90
3602;DHT22;1815;50.950;6.920;2023-07-24T06:18:14;28.40;99.90
3602;DHT22;1815;50.950;6.920;2023-07-24T06:20:40;28.30;99.90
3602;DHT22;1815;50.950;6.920;2023-07-24T06:23:06;28.10;99.90
3602;DHT22;1815;50.950;6.920;2023-07-24T06:25:32;27.80;99.90
3602;DHT22;1815;50.950;6.920;2023-07-24T06:27:58;27.50;99.90
3602;DHT22;1815;50.950;6.920;2023-07-24T06:30:24;27.30;99.90
3602;DHT22;1815;50.950;6.920;2023-07-24T06:32:50;27.00;99.90
3602;DHT22;1815;50.950;6.920;2023-07-24T06:35:15;26.80;99.90
3602;DHT22;1815;50.950;6.920;2023-07-24T06:37:41;26.60;99.90
3602;DHT22;1815;50.950;6.920;2023-07-24T06:40:07;26.40;99.90
3602;DHT22;1815;50.950;6.920;2023-07-24T06:42:34;26.10;99.90
3602;DHT22;1815;50.950;6.920;2023-07-24T06:45:00;25.90;99.90
3602;DHT22;1815;50.950;6.920;2023-07-24T06:47:26;25.80;99.90
3602;DHT22;1815;50.950;6.920;2023-07-24T06:49:52;25.60;99.90
3602;DHT22;1815;50.950;6.920;2023-07-24T06:52:18;25.50;99.90
3602;DHT22;1815;50.950;6.920;2023-07-24T06:54:43;25.30;99.90
3602;DHT22;1815;50.950;6.920;2023-07-24T06:57:09;25.20;99.90
3602;DHT22;1815;50.950;6.920;2023-07-24T06:59:35;25.10;99.90
3602;DHT22;1815;50.950;6.920;2023-07-24T07:02:01;25.10;99.90
3602;DHT22;1815;50.950;6.920;2023-07-24T07:04:27;25.00;99.90
3602;DHT22;1815;50.950;6.920;2023-07-24T07:06:53;25.10;99.90
3602;DHT22;1815;50.950;6.920;2023-07-24T07:09:18;25.20;99.90
3602;DHT22;1815;50.950;6.920;2023-07-24T07:11:44;25.30;99.90
3602;DHT22;1815;50.950;6.920;2023-07-24T07:14:10;25.50;99.90
3602;DHT22;1815;50.950;6.920;2023-07-24T07:16:36;25.80;99.90
3602;DHT22;1815;50.950;6.920;2023-07-24T07:19:02;26.00;99.90
3602;DHT22;1815;50.950;6.920;2023-07-24T07:21:28;26.10;99.90
3602;DHT22;1815;50.950;6.920;2023-07-24T07:23:53;26.20;99.90
3602;DHT22;1815;50.950;6.920;2023-07-24T07:26:20;26.20;99.90
3602;DHT22;1815;50.950;6.920;2023-07-24T07:28:47;26.20;99.90
3602;DHT22;1815;50.950;6.920;2023-07-24T07:31:13;26.10;99.90
3602;DHT22;1815;50.950;6.920;2023-07-24T07:33:38;26.10;99.90
3602;DHT22;1815;50.950;6.920;2023-07-24T07:36:04;25.90;99.90
3602;DHT22;1815;50.950;6.920;2023-07-24T07:38:32;25.80;99.90
3602;DHT22;1815;50.950;6.920;2023-07-24T07:40:58;25.80;99.90
3602;DHT22;1815;50.950;6.920;2023-07-24T07:43:23;25.70;99.90
3602;DHT22;1815;50.950;6.920;2023-07-24T07:45:49;25.70;99.90
3602;DHT22;1815;50.950;6.920;2023-07-24T07:48:15;25.70;99.90
3602;DHT22;1815;50.950;6.920;2023-07-24T07:50:41;25.80;99.90
3602;DHT22;1815;50.950;6.920;2023-07-24T07:53:06;25.90;99.90
3602;DHT22;1815;50.950;6.920;2023-07-24T07:55:32;26.00;99.90
3602;DHT22;1815;50.950;6.920;2023-07-24T07:57:58;26.10;99.90
3602;DHT22;1815;50.950;6.920;2023-07-24T08:00:23;26.10;99.90
3602;DHT22;1815;50.950;6.920;2023-07-24T08:02:49;26.30;99.90
3602;DHT22;1815;50.950;6.920;2023-07-24T08:05:15;26.30;99.90
3602;DHT22;1815;50.950;6.920;2023-07-24T08:07:41;26.40;99.90
3602;DHT22;1815;50.950;6.920;2023-07-24T08:10:07;26.50;99.90
3602;DHT22;1815;50.950;6.920;2023-07-24T08:12:33;26.60;99.90
3602;DHT22;1815;50.950;6.920;2023-07-24T08:14:59;26.80;99.90
3602;DHT22;1815;50.950;6.920;2023-07-24T08:17:25;27.00;99.90
3602;DHT22;1815;50.950;6.920;2023-07-24T08:19:51;27.10;99.90
3602;DHT22;1815;50.950;6.920;2023-07-24T08:22:17;27.20;99.90
3602;DHT22;1815;50.950;6.920;2023-07-24T08:24:45;27.20;99.90
3602;DHT22;1815;50.950;6.920;2023-07-24T08:27:10;27.20;99.90
3602;DHT22;1815;50.950;6.920;2023-07-24T08:29:36;27.10;99.90
3602;DHT22;1815;50.950;6.920;2023-07-24T08:32:04;27.00;99.90
3602;DHT22;1815;50.950;6.920;2023-07-24T08:34:30;26.90;99.90
3602;DHT22;1815;50.950;6.920;2023-07-24T08:36:55;26.70;99.90
3602;DHT22;1815;50.950;6.920;2023-07-24T08:39:21;26.60;99.90
3602;DHT22;1815;50.950;6.920;2023-07-24T08:41:47;26.50;99.90
3602;DHT22;1815;50.950;6.920;2023-07-24T08:44:13;26.40;99.90
3602;DHT22;1815;50.950;6.920;2023-07-24T08:46:39;26.40;99.90
3602;DHT22;1815;50.950;6.920;2023-07-24T08:49:11;26.40;99.90
3602;DHT22;1815;50.950;6.920;2023-07-24T08:51:37;26.50;99.90
3602;DHT22;1815;50.950;6.920;2023-07-24T08:54:04;26.80;99.90
3602;DHT22;1815;50.950;6.920;2023-07-24T08:56:30;27.00;99.90
3602;DHT22;1815;50.950;6.920;2023-07-24T08:58:56;27.20;99.90
3602;DHT22;1815;50.950;6.920;2023-07-24T09:01:21;27.50;99.90
3602;DHT22;1815;50.950;6.920;2023-07-24T09:03:47;27.70;99.90
3602;DHT22;1815;50.950;6.920;2023-07-24T09:06:13;27.90;99.90
3602;DHT22;1815;50.950;6.920;2023-07-24T09:08:43;28.00;99.90
3602;DHT22;1815;50.950;6.920;2023-07-24T09:11:10;28.00;99.90
3602;DHT22;1815;50.950;6.920;2023-07-24T09:13:37;28.10;99.90
3602;DHT22;1815;50.950;6.920;2023-07-24T09:16:04;28.10;99.90
3602;DHT22;1815;50.950;6.920;2023-07-24T09:18:42;28.10;99.90
3602;DHT22;1815;50.950;6.920;2023-07-24T09:21:09;28.10;99.90
3602;DHT22;1815;50.950;6.920;2023-07-24T09:23:38;28.20;99.90
3602;DHT22;1815;50.950;6.920;2023-07-24T09:26:09;28.20;99.90
3602;DHT22;1815;50.950;6.920;2023-07-24T09:28:35;28.20;99.90
3602;DHT22;1815;50.950;6.920;2023-07-24T09:31:01;28.10;99.90
3602;DHT22;1815;50.950;6.920;2023-07-24T09:36:01;28.00;99.90
3602;DHT22;1815;50.950;6.920;2023-07-24T09:38:27;27.90;99.90
3602;DHT22;1815;50.950;6.920;2023-07-24T09:40:53;27.80;99.90
3602;DHT22;1815;50.950;6.920;2023-07-24T09:43:22;27.70;99.90
3602;DHT22;1815;50.950;6.920;2023-07-24T09:45:49;27.60;99.90
3602;DHT22;1815;50.950;6.920;2023-07-24T09:48:16;27.50;99.90
3602;DHT22;1815;50.950;6.920;2023-07-24T09:50:44;27.40;99.90
3602;DHT22;1815;50.950;6.920;2023-07-24T09:56:08;27.30;99.90
3602;DHT22;1815;50.950;6.920;2023-07-24T09:58:38;27.20;99.90
3602;DHT22;1815;50.950;6.920;2023-07-24T10:01:06;27.30;99.90
3602;DHT22;1815;50.950;6.920;2023-07-24T10:03:40;27.30;99.90
3602;DHT22;1815;50.950;6.920;2023-07-24T10:06:06;27.30;99.90
3602;DHT22;1815;50.950;6.920;2023-07-24T10:08:36;27.30;99.90
3602;DHT22;1815;50.950;6.920;2023-07-24T10:11:02;27.30;99.90
3602;DHT22;1815;50.950;6.920;2023-07-24T10:13:29;27.30;99.90
3602;DHT22;1815;50.950;6.920;2023-07-24T10:15:55;27.30;99.90
3602;DHT22;1815;50.950;6.920;2023-07-24T10:18:28;27.40;99.90
3602;DHT22;1815;50.950;6.920;2023-07-24T10:21:05;27.60;99.90
3602;DHT22;1815;50.950;6.920;2023-07-24T10:23:33;27.80;99.90
3602;DHT22;1815;50.950;6.920;2023-07-24T10:26:03;28.30;99.90
3602;DHT22;1815;50.950;6.920;2023-07-24T10:28:34;28.90;99.90
3602;DHT22;1815;50.950;6.920;2023-07-24T10:31:02;29.90;99.90
3602;DHT22;1815;50.950;6.920;2023-07-24T10:33:30;30.70;99.90
3602;DHT22;1815;50.950;6.920;2023-07-24T10:36:09;31.40;99.90
3602;DHT22;1815;50.950;6.920;2023-07-24T10:38:37;32.00;99.90
3602;DHT22;1815;50.950;6.920;2023-07-24T10:41:06;32.60;99.90
3602;DHT22;1815;50.950;6.920;2023-07-24T10:43:47;32.90;99.90
3602;DHT22;1815;50.950;6.920;2023-07-24T10:46:14;33.00;99.50
3602;DHT22;1815;50.950;6.920;2023-07-24T10:48:45;33.00;98.70
3602;DHT22;1815;50.950;6.920;2023-07-24T10:51:11;32.80;97.20
3602;DHT22;1815;50.950;6.920;2023-07-24T10:53:44;32.50;96.90
3602;DHT22;1815;50.950;6.920;2023-07-24T10:56:10;32.20;95.90
3602;DHT22;1815;50.950;6.920;2023-07-24T10:58:36;31.90;95.50
3602;DHT22;1815;50.950;6.920;2023-07-24T11:01:06;31.50;95.00
3602;DHT22;1815;50.950;6.920;2023-07-24T11:03:34;31.10;94.50
3602;DHT22;1815;50.950;6.920;2023-07-24T11:06:02;30.70;95.20
3602;DHT22;1815;50.950;6.920;2023-07-24T11:08:28;30.20;95.20
3602;DHT22;1815;50.950;6.920;2023-07-24T11:10:55;29.80;95.60
3602;DHT22;1815;50.950;6.920;2023-07-24T11:13:24;29.50;97.00
3602;DHT22;1815;50.950;6.920;2023-07-24T11:15:50;29.40;97.80
3602;DHT22;1815;50.950;6.920;2023-07-24T11:18:18;29.30;97.70
3602;DHT22;1815;50.950;6.920;2023-07-24T11:20:51;29.00;97.10
3602;DHT22;1815;50.950;6.920;2023-07-24T11:23:18;28.80;97.50
3602;DHT22;1815;50.950;6.920;2023-07-24T11:25:44;28.70;97.60
3602;DHT22;1815;50.950;6.920;2023-07-24T11:28:12;28.60;97.60
3602;DHT22;1815;50.950;6.920;2023-07-24T11:30:39;28.40;98.00
3602;DHT22;1815;50.950;6.920;2023-07-24T11:33:07;28.20;98.50
3602;DHT22;1815;50.950;6.920;2023-07-24T11:35:34;28.30;99.10
3602;DHT22;1815;50.950;6.920;2023-07-24T11:38:04;28.40;99.60
3602;DHT22;1815;50.950;6.920;2023-07-24T11:40:39;28.40;98.90
3602;DHT22;1815;50.950;6.920;2023-07-24T11:43:15;28.20;97.60
3602;DHT22;1815;50.950;6.920;2023-07-24T11:45:43;28.00;99.90
3602;DHT22;1815;50.950;6.920;2023-07-24T11:48:09;27.40;99.90
3602;DHT22;1815;50.950;6.920;2023-07-24T11:50:47;26.50;99.90
3602;DHT22;1815;50.950;6.920;2023-07-24T11:53:24;25.70;99.90
3602;DHT22;1815;50.950;6.920;2023-07-24T11:55:56;24.90;99.90
3602;DHT22;1815;50.950;6.920;2023-07-24T11:58:25;24.20;99.90
3602;DHT22;1815;50.950;6.920;2023-07-24T12:00:51;23.60;99.90
3602;DHT22;1815;50.950;6.920;2023-07-24T12:03:24;23.20;99.90
3602;DHT22;1815;50.950;6.920;2023-07-24T12:05:50;22.80;99.90
3602;DHT22;1815;50.950;6.920;2023-07-24T12:08:17;22.60;99.90
3602;DHT22;1815;50.950;6.920;2023-07-24T12:10:44;22.40;99.90
3602;DHT22;1815;50.950;6.920;2023-07-24T12:13:10;22.20;99.90
3602;DHT22;1815;50.950;6.920;2023-07-24T12:15:35;22.10;99.90
3602;DHT22;1815;50.950;6.920;2023-07-24T12:18:03;22.10;99.90
3602;DHT22;1815;50.950;6.920;2023-07-24T12:20:29;22.00;99.90
3602;DHT22;1815;50.950;6.920;2023-07-24T12:22:56;22.00;99.90
3602;DHT22;1815;50.950;6.920;2023-07-24T12:25:22;22.00;99.90
3602;DHT22;1815;50.950;6.920;2023-07-24T12:27:48;21.90;99.90
3602;DHT22;1815;50.950;6.920;2023-07-24T12:30:14;21.90;99.90
3602;DHT22;1815;50.950;6.920;2023-07-24T12:32:39;21.90;99.90
3602;DHT22;1815;50.950;6.920;2023-07-24T12:35:06;21.90;99.90
3602;DHT22;1815;50.950;6.920;2023-07-24T12:37:32;21.90;99.90
3602;DHT22;1815;50.950;6.920;2023-07-24T12:39:58;21.90;99.90
3602;DHT22;1815;50.950;6.920;2023-07-24T12:42:24;21.90;99.90
3602;DHT22;1815;50.950;6.920;2023-07-24T12:44:49;22.00;99.90
3602;DHT22;1815;50.950;6.920;2023-07-24T12:47:15;22.00;99.90
3602;DHT22;1815;50.950;6.920;2023-07-24T12:49:41;22.10;99.90
3602;DHT22;1815;50.950;6.920;2023-07-24T12:52:07;22.10;99.90
3602;DHT22;1815;50.950;6.920;2023-07-24T12:54:33;22.20;99.90
3602;DHT22;1815;50.950;6.920;2023-07-24T12:56:59;22.20;99.90
3602;DHT22;1815;50.950;6.920;2023-07-24T12:59:26;22.20;99.90
3602;DHT22;1815;50.950;6.920;2023-07-24T13:01:52;22.10;99.90
3602;DHT22;1815;50.950;6.920;2023-07-24T13:04:19;22.10;99.90
3602;DHT22;1815;50.950;6.920;2023-07-24T13:06:45;22.10;99.90
3602;DHT22;1815;50.950;6.920;2023-07-24T13:09:10;22.00;99.90
3602;DHT22;1815;50.950;6.920;2023-07-24T13:11:36;22.10;99.90
3602;DHT22;1815;50.950;6.920;2023-07-24T13:14:02;22.10;99.90
3602;DHT22;1815;50.950;6.920;2023-07-24T13:16:28;22.20;99.90
3602;DHT22;1815;50.950;6.920;2023-07-24T13:18:53;22.20;99.90
3602;DHT22;1815;50.950;6.920;2023-07-24T13:21:20;22.20;99.90
3602;DHT22;1815;50.950;6.920;2023-07-24T13:23:46;22.10;99.90
3602;DHT22;1815;50.950;6.920;2023-07-24T13:26:12;22.00;99.90
3602;DHT22;1815;50.950;6.920;2023-07-24T13:28:39;22.00;99.90
3602;DHT22;1815;50.950;6.920;2023-07-24T13:31:18;22.10;99.90
3602;DHT22;1815;50.950;6.920;2023-07-24T13:33:44;22.20;99.90
3602;DHT22;1815;50.950;6.920;2023-07-24T13:36:10;22.30;99.90
3602;DHT22;1815;50.950;6.920;2023-07-24T13:38:36;22.50;99.90
3602;DHT22;1815;50.950;6.920;2023-07-24T13:41:02;22.60;99.90
3602;DHT22;1815;50.950;6.920;2023-07-24T13:43:29;22.70;99.90
3602;DHT22;1815;50.950;6.920;2023-07-24T13:45:55;22.80;99.90
3602;DHT22;1815;50.950;6.920;2023-07-24T13:48:21;22.90;99.90
3602;DHT22;1815;50.950;6.920;2023-07-24T13:50:47;23.00;99.90
3602;DHT22;1815;50.950;6.920;2023-07-24T13:53:12;23.00;99.90
3602;DHT22;1815;50.950;6.920;2023-07-24T13:55:38;23.10;99.90
3602;DHT22;1815;50.950;6.920;2023-07-24T13:58:04;23.10;99.90
3602;DHT22;1815;50.950;6.920;2023-07-24T14:00:33;23.10;99.90
3602;DHT22;1815;50.950;6.920;2023-07-24T14:02:58;23.10;99.90
3602;DHT22;1815;50.950;6.920;2023-07-24T14:05:24;23.00;99.90
3602;DHT22;1815;50.950;6.920;2023-07-24T14:07:50;23.00;99.90
3602;DHT22;1815;50.950;6.920;2023-07-24T14:10:15;22.90;99.90
3602;DHT22;1815;50.950;6.920;2023-07-24T14:12:41;22.80;99.90
3602;DHT22;1815;50.950;6.920;2023-07-24T14:15:07;22.80;99.90
3602;DHT22;1815;50.950;6.920;2023-07-24T14:17:33;22.70;99.90
3602;DHT22;1815;50.950;6.920;2023-07-24T14:20:01;22.70;99.90
3602;DHT22;1815;50.950;6.920;2023-07-24T14:22:27;22.60;99.90
3602;DHT22;1815;50.950;6.920;2023-07-24T14:24:53;22.60;99.90
3602;DHT22;1815;50.950;6.920;2023-07-24T14:27:19;22.60;99.90
3602;DHT22;1815;50.950;6.920;2023-07-24T14:29:46;22.60;99.90
3602;DHT22;1815;50.950;6.920;2023-07-24T14:32:12;22.60;99.90
3602;DHT22;1815;50.950;6.920;2023-07-24T14:34:37;22.50;99.90
3602;DHT22;1815;50.950;6.920;2023-07-24T14:37:04;22.50;99.90
3602;DHT22;1815;50.950;6.920;2023-07-24T14:39:29;22.50;99.90
3602;DHT22;1815;50.950;6.920;2023-07-24T14:41:55;22.60;99.90
3602;DHT22;1815;50.950;6.920;2023-07-24T14:44:21;22.60;99.90
3602;DHT22;1815;50.950;6.920;2023-07-24T14:46:47;22.60;99.90
3602;DHT22;1815;50.950;6.920;2023-07-24T14:49:12;22.70;99.90
3602;DHT22;1815;50.950;6.920;2023-07-24T14:51:38;22.80;99.90
3602;DHT22;1815;50.950;6.920;2023-07-24T14:54:04;22.90;99.90
3602;DHT22;1815;50.950;6.920;2023-07-24T14:56:29;23.00;99.90
3602;DHT22;1815;50.950;6.920;2023-07-24T14:58:55;23.10;99.90
3602;DHT22;1815;50.950;6.920;2023-07-24T15:01:21;23.20;99.90
3602;DHT22;1815;50.950;6.920;2023-07-24T15:03:46;23.30;99.90
3602;DHT22;1815;50.950;6.920;2023-07-24T15:06:12;23.40;99.90
3602;DHT22;1815;50.950;6.920;2023-07-24T15:08:38;23.50;99.90
3602;DHT22;1815;50.950;6.920;2023-07-24T15:11:03;23.60;99.90
3602;DHT22;1815;50.950;6.920;2023-07-24T15:13:29;23.80;99.90
3602;DHT22;1815;50.950;6.920;2023-07-24T15:15:55;23.90;99.90
3602;DHT22;1815;50.950;6.920;2023-07-24T15:18:21;24.00;99.90
3602;DHT22;1815;50.950;6.920;2023-07-24T15:20:47;24.10;99.90
3602;DHT22;1815;50.950;6.920;2023-07-24T15:23:12;24.20;99.90
3602;DHT22;1815;50.950;6.920;2023-07-24T15:25:39;24.20;99.90
3602;DHT22;1815;50.950;6.920;2023-07-24T15:28:04;24.30;99.90
3602;DHT22;1815;50.950;6.920;2023-07-24T15:30:31;24.30;99.90
3602;DHT22;1815;50.950;6.920;2023-07-24T15:32:56;24.40;99.90
3602;DHT22;1815;50.950;6.920;2023-07-24T15:35:22;24.50;99.90
3602;DHT22;1815;50.950;6.920;2023-07-24T15:37:48;24.40;99.90
3602;DHT22;1815;50.950;6.920;2023-07-24T15:40:14;24.40;99.90
3602;DHT22;1815;50.950;6.920;2023-07-24T15:42:40;24.40;99.90
3602;DHT22;1815;50.950;6.920;2023-07-24T15:45:06;24.40;99.90
3602;DHT22;1815;50.950;6.920;2023-07-24T15:47:32;24.40;99.90
3602;DHT22;1815;50.950;6.920;2023-07-24T15:49:57;24.40;99.90
3602;DHT22;1815;50.950;6.920;2023-07-24T15:52:24;24.40;99.90
3602;DHT22;1815;50.950;6.920;2023-07-24T15:54:49;24.40;99.90
3602;DHT22;1815;50.950;6.920;2023-07-24T15:57:15;24.40;99.90
3602;DHT22;1815;50.950;6.920;2023-07-24T15:59:41;24.40;99.90
3602;DHT22;1815;50.950;6.920;2023-07-24T16:02:06;24.40;99.90
3602;DHT22;1815;50.950;6.920;2023-07-24T16:04:32;24.40;99.90
3602;DHT22;1815;50.950;6.920;2023-07-24T16:06:58;24.50;99.90